Williamsport, Pennsylvania
Current Conditions -  °F | °C
As of 7:54 PM on Friday 28 Nov 2014 (Local Time) from KIPT Reporting Station
Clear Clear  
Wind Chill: 19°   Ceiling: Unl
Heat Index: 27°   Visibility: 10mi
Dew Point: 14°   Wind: 7mph
Humidity: 58%   Direction: 260°W
Pressure: 30.25"   Gusts: NA
Location:  41.24°N, 77°W
Report Text: KIPT 290054Z 26006KT 10SM CLR M03/M10 A3025 RMK AO2 SLP250 T10281100
Loading
Personal Weather Stations






























Interactive Weather Map New forecast layout! Learn more

10-Day Weather Forecast

Advertisements
Track Severe Weather on mobile